createdAt,value
2018-12-26T00:01:08.316Z,31.17
2018-12-26T00:02:25.027Z,31.20
2018-12-26T00:03:42.298Z,26.62
2018-12-26T00:04:59.248Z,27.35
2018-12-26T00:06:17.069Z,30.72
2018-12-26T00:07:34.090Z,30.72
2018-12-26T00:08:51.319Z,29.52
2018-12-26T00:10:08.831Z,30.95
2018-12-26T00:11:26.318Z,33.53
2018-12-26T00:12:43.820Z,30.90
2018-12-26T00:14:00.540Z,29.27
2018-12-26T00:15:17.926Z,27.10
2018-12-26T00:16:35.383Z,29.25
2018-12-26T00:17:40.753Z,29.50
2018-12-26T00:18:57.281Z,30.52
2018-12-26T00:20:14.686Z,30.68
2018-12-26T00:21:20.038Z,31.07
2018-12-26T00:22:36.958Z,31.45
2018-12-26T00:23:53.574Z,31.17
2018-12-26T00:25:10.905Z,31.00
2018-12-26T00:26:28.439Z,31.12
2018-12-26T00:27:45.968Z,31.85
2018-12-26T00:29:02.721Z,33.08
2018-12-26T00:30:19.353Z,28.32
2018-12-26T00:31:35.976Z,28.90
2018-12-26T00:32:52.728Z,29.85
2018-12-26T00:34:10.184Z,32.53
2018-12-26T00:35:27.089Z,32.08
2018-12-26T00:36:32.425Z,31.40
2018-12-26T00:37:56.773Z,31.25
2018-12-26T00:39:13.430Z,31.77
2018-12-26T00:40:30.136Z,32.60
2018-12-26T00:41:46.683Z,31.40
2018-12-26T00:43:03.337Z,31.17
2018-12-26T00:44:20.735Z,30.35
2018-12-26T00:45:37.245Z,34.30
2018-12-26T00:46:53.881Z,30.60
2018-12-26T00:48:10.550Z,32.53
2018-12-26T00:49:27.209Z,31.62
2018-12-26T00:50:44.574Z,35.58
2018-12-26T00:52:01.229Z,32.13
2018-12-26T00:53:18.226Z,31.70
2018-12-26T00:54:34.741Z,32.70
2018-12-26T00:55:51.372Z,33.28
2018-12-26T00:57:08.022Z,33.50
2018-12-26T00:58:24.544Z,29.25
2018-12-26T00:59:41.634Z,30.82
2018-12-26T01:00:58.925Z,32.33
2018-12-26T01:02:16.380Z,31.02
2018-12-26T01:03:32.958Z,34.18
2018-12-26T01:04:49.437Z,34.98
2018-12-26T01:06:05.895Z,32.93
2018-12-26T01:07:23.307Z,34.45
2018-12-26T01:08:40.766Z,34.03
2018-12-26T01:09:57.305Z,35.90
2018-12-26T01:11:14.692Z,31.93
2018-12-26T01:12:31.416Z,32.78
2018-12-26T01:13:48.814Z,32.58
2018-12-26T01:15:05.626Z,34.83
2018-12-26T01:16:22.287Z,33.18
2018-12-26T01:17:38.691Z,33.15
2018-12-26T01:18:55.631Z,34.85
2018-12-26T01:20:12.150Z,33.15
2018-12-26T01:21:29.679Z,34.10
2018-12-26T01:22:46.113Z,36.20
2018-12-26T01:24:02.740Z,32.35
2018-12-26T01:25:19.533Z,35.40
2018-12-26T01:26:35.972Z,35.60
2018-12-26T01:27:52.458Z,33.58
2018-12-26T01:29:10.108Z,34.25
2018-12-26T01:30:27.576Z,36.42
2018-12-26T01:31:44.209Z,36.53
2018-12-26T01:33:01.054Z,34.85
2018-12-26T01:34:18.189Z,37.53
2018-12-26T01:35:34.763Z,39.60
2018-12-26T01:36:52.982Z,37.00
2018-12-26T01:37:58.124Z,36.05
2018-12-26T01:39:15.217Z,37.83
2018-12-26T01:40:20.946Z,35.83
2018-12-26T01:41:26.091Z,38.23
2018-12-26T01:43:59.166Z,38.50
2018-12-26T01:45:16.536Z,36.88
2018-12-26T01:46:33.891Z,35.03
2018-12-26T01:47:51.348Z,34.20
2018-12-26T01:49:08.355Z,37.60
2018-12-26T01:50:24.897Z,38.38
2018-12-26T01:51:41.712Z,37.42
2018-12-26T01:52:58.230Z,37.00
2018-12-26T01:54:14.921Z,36.45
2018-12-26T01:55:31.569Z,41.28
2018-12-26T01:56:48.090Z,40.25
2018-12-26T01:58:04.818Z,39.48
2018-12-26T01:59:21.456Z,36.03
2018-12-26T02:00:37.968Z,39.38
2018-12-26T02:01:54.553Z,36.93
2018-12-26T02:03:11.982Z,40.67
2018-12-26T02:04:28.593Z,40.45
2018-12-26T02:05:45.584Z,38.83
2018-12-26T02:07:02.795Z,38.98
2018-12-26T02:08:20.247Z,37.33
2018-12-26T02:09:37.135Z,42.13
2018-12-26T02:10:55.261Z,39.13
2018-12-26T02:12:11.849Z,40.43
2018-12-26T02:13:28.378Z,41.85
2018-12-26T02:14:44.957Z,39.98
2018-12-26T02:16:01.612Z,35.73
2018-12-26T02:17:18.889Z,40.52
2018-12-26T02:18:36.110Z,39.40
2018-12-26T02:19:52.865Z,39.20
2018-12-26T02:21:09.915Z,38.38
2018-12-26T02:22:26.458Z,41.48
2018-12-26T02:23:31.800Z,40.98
2018-12-26T02:24:56.178Z,40.20
2018-12-26T02:26:13.288Z,39.95
2018-12-26T02:27:30.626Z,38.05
2018-12-26T02:28:47.841Z,39.38
2018-12-26T02:30:04.253Z,43.85
2018-12-26T02:31:20.962Z,42.95
2018-12-26T02:32:37.931Z,40.90
2018-12-26T02:33:54.489Z,39.27
2018-12-26T02:35:11.073Z,41.77
2018-12-26T02:36:27.856Z,38.88
2018-12-26T02:37:45.314Z,41.25
2018-12-26T02:39:01.894Z,42.25
2018-12-26T02:40:20.774Z,39.70
2018-12-26T02:41:37.234Z,41.15
2018-12-26T02:42:54.054Z,40.43
2018-12-26T02:44:10.707Z,41.40
2018-12-26T02:45:27.247Z,39.42
2018-12-26T02:46:44.657Z,40.23
2018-12-26T02:48:01.582Z,43.08
2018-12-26T02:49:19.130Z,43.35
2018-12-26T02:50:36.200Z,42.88
2018-12-26T02:51:53.288Z,40.17
2018-12-26T02:53:10.027Z,38.78
2018-12-26T02:54:26.555Z,41.95
2018-12-26T02:55:43.372Z,41.83
2018-12-26T02:57:00.680Z,44.88
2018-12-26T02:58:17.355Z,46.30
2018-12-26T02:59:34.978Z,45.38
2018-12-26T03:00:51.543Z,40.88
2018-12-26T03:02:08.212Z,46.33
2018-12-26T03:03:24.851Z,44.13
2018-12-26T03:04:42.319Z,42.80
2018-12-26T03:05:58.906Z,40.50
2018-12-26T03:07:15.518Z,41.30
2018-12-26T03:08:32.095Z,40.83
2018-12-26T03:09:48.950Z,41.80
2018-12-26T03:11:05.779Z,45.55
2018-12-26T03:12:23.052Z,42.20
2018-12-26T03:13:40.888Z,44.63
2018-12-26T03:14:58.277Z,43.17
2018-12-26T03:16:14.955Z,44.38
2018-12-26T03:17:33.108Z,43.10
2018-12-26T03:18:49.960Z,48.63
2018-12-26T03:20:06.588Z,41.68
2018-12-26T03:21:23.592Z,44.42
2018-12-26T03:22:40.175Z,44.38
2018-12-26T03:23:56.598Z,44.33
2018-12-26T03:25:13.190Z,43.28
2018-12-26T03:26:30.429Z,42.05
2018-12-26T03:27:46.967Z,43.43
2018-12-26T03:29:03.586Z,41.30
2018-12-26T03:30:20.203Z,47.55
2018-12-26T03:31:37.571Z,45.28
2018-12-26T03:32:42.845Z,42.03
2018-12-26T03:34:07.222Z,44.25
2018-12-26T03:35:23.814Z,45.03
2018-12-26T03:36:41.398Z,46.37
2018-12-26T03:37:57.971Z,46.28
2018-12-26T03:39:14.630Z,49.60
2018-12-26T03:40:31.178Z,45.52
2018-12-26T03:41:48.572Z,49.70
2018-12-26T03:42:53.992Z,47.48
2018-12-26T03:44:10.957Z,43.08
2018-12-26T03:45:28.349Z,48.90
2018-12-26T03:46:44.957Z,47.80
2018-12-26T03:48:02.402Z,48.25
2018-12-26T03:49:19.112Z,44.42
2018-12-26T03:50:36.616Z,51.40
2018-12-26T03:51:53.258Z,43.10
2018-12-26T03:53:10.026Z,46.40
2018-12-26T03:54:26.584Z,46.30
2018-12-26T03:55:43.127Z,44.20
2018-12-26T03:57:05.967Z,46.05
2018-12-26T03:58:17.722Z,46.70
2018-12-26T03:59:35.145Z,47.00
2018-12-26T04:00:51.744Z,49.45
2018-12-26T04:02:08.489Z,46.37
2018-12-26T04:03:25.722Z,46.42
2018-12-26T04:04:42.615Z,45.60
2018-12-26T04:06:00.038Z,45.28
2018-12-26T04:07:16.553Z,49.45
2018-12-26T04:08:33.273Z,47.13
2018-12-26T04:09:50.585Z,47.50
2018-12-26T04:11:07.163Z,46.18
2018-12-26T04:12:12.465Z,47.55
2018-12-26T04:13:29.368Z,48.42
2018-12-26T04:14:45.916Z,49.53
2018-12-26T04:16:02.424Z,48.58
2018-12-26T04:17:18.940Z,47.00
2018-12-26T04:18:36.217Z,45.17
2018-12-26T04:19:53.109Z,47.95
2018-12-26T04:21:09.734Z,47.70
2018-12-26T04:22:26.411Z,45.38
2018-12-26T04:23:42.965Z,47.75
2018-12-26T04:25:00.411Z,47.80
2018-12-26T04:26:17.840Z,49.33
2018-12-26T04:27:34.415Z,44.77
2018-12-26T04:28:50.916Z,48.30
2018-12-26T04:29:56.192Z,49.23
2018-12-26T04:31:20.501Z,48.78
2018-12-26T04:32:37.135Z,50.90
2018-12-26T04:33:54.399Z,48.73
2018-12-26T04:35:10.952Z,48.73
2018-12-26T04:36:27.547Z,47.78
2018-12-26T04:37:45.224Z,46.83
2018-12-26T04:38:50.333Z,47.35
2018-12-26T04:39:55.602Z,46.88
2018-12-26T04:41:12.774Z,45.73
2018-12-26T04:42:29.279Z,48.28
2018-12-26T04:43:46.072Z,48.40
2018-12-26T04:45:02.628Z,47.90
2018-12-26T04:46:19.195Z,47.83
2018-12-26T04:47:35.872Z,49.77
2018-12-26T04:48:52.604Z,50.23
2018-12-26T04:50:10.034Z,43.95
2018-12-26T04:51:26.800Z,51.48
2018-12-26T04:52:43.364Z,48.25
2018-12-26T04:53:59.795Z,48.33
2018-12-26T04:55:16.529Z,49.40
2018-12-26T04:56:33.924Z,48.40
2018-12-26T04:57:50.623Z,52.65
2018-12-26T04:59:07.387Z,47.35
2018-12-26T05:00:24.896Z,49.45
2018-12-26T05:01:42.218Z,48.83
2018-12-26T05:02:59.091Z,47.65
2018-12-26T05:04:15.676Z,46.60
2018-12-26T05:05:33.952Z,48.38
2018-12-26T05:06:50.720Z,50.15
2018-12-26T05:08:07.373Z,50.43
2018-12-26T05:09:24.516Z,46.18
2018-12-26T05:10:41.171Z,50.52
2018-12-26T05:11:57.685Z,50.00
2018-12-26T05:13:14.226Z,50.10
2018-12-26T05:14:31.549Z,49.75
2018-12-26T05:15:48.049Z,48.70
2018-12-26T05:17:04.887Z,47.75
2018-12-26T05:18:10.155Z,47.40
2018-12-26T05:19:34.439Z,49.25
2018-12-26T05:20:51.623Z,51.30
2018-12-26T05:22:08.032Z,53.08
2018-12-26T05:23:13.311Z,47.98
2018-12-26T05:24:18.470Z,52.30
2018-12-26T05:25:35.763Z,50.30
2018-12-26T05:26:52.331Z,48.83
2018-12-26T05:27:57.605Z,47.38
2018-12-26T05:29:02.930Z,46.13
2018-12-26T05:30:08.302Z,47.70
2018-12-26T05:31:13.692Z,47.13
2018-12-26T05:32:18.948Z,49.45
2018-12-26T05:33:24.279Z,51.35
2018-12-26T05:34:29.478Z,48.80
2018-12-26T05:35:34.818Z,49.38
2018-12-26T05:36:40.108Z,53.68
2018-12-26T05:37:45.450Z,50.20
2018-12-26T05:38:50.659Z,50.73
2018-12-26T05:39:55.958Z,52.08
2018-12-26T05:41:01.256Z,51.65
2018-12-26T05:42:06.704Z,56.45
2018-12-26T05:43:11.881Z,54.13
2018-12-26T05:44:17.201Z,52.05
2018-12-26T05:45:22.492Z,52.70
2018-12-26T05:46:27.781Z,54.33
2018-12-26T05:47:33.010Z,52.62
2018-12-26T05:48:38.202Z,52.38
2018-12-26T05:49:43.532Z,51.90
2018-12-26T05:50:48.766Z,53.73
2018-12-26T05:51:54.096Z,53.15
2018-12-26T05:52:59.395Z,51.85
2018-12-26T05:54:04.678Z,49.33
2018-12-26T05:55:10.129Z,57.15
2018-12-26T05:56:15.512Z,54.08
2018-12-26T05:57:20.808Z,51.92
2018-12-26T05:58:26.068Z,53.68
2018-12-26T05:59:31.353Z,58.75
2018-12-26T06:00:36.598Z,56.75
2018-12-26T06:01:41.909Z,55.60
2018-12-26T06:02:47.161Z,54.03
2018-12-26T06:03:52.354Z,54.88
2018-12-26T06:04:57.635Z,62.58
2018-12-26T06:06:02.972Z,55.08
2018-12-26T06:07:08.292Z,51.80
2018-12-26T06:08:13.575Z,55.03
2018-12-26T06:09:18.742Z,55.17
2018-12-26T06:10:24.042Z,54.95
2018-12-26T06:11:29.370Z,57.53
2018-12-26T06:12:34.564Z,51.37
2018-12-26T06:13:39.762Z,52.40
2018-12-26T06:14:44.976Z,56.85
2018-12-26T06:15:50.182Z,53.98
2018-12-26T06:16:55.419Z,56.35
2018-12-26T06:18:00.726Z,52.08
2018-12-26T06:19:06.011Z,55.78
2018-12-26T06:20:11.302Z,53.55
2018-12-26T06:21:16.570Z,54.53
2018-12-26T06:22:21.865Z,59.18
2018-12-26T06:23:27.285Z,58.45
2018-12-26T06:24:32.500Z,55.25
2018-12-26T06:25:37.605Z,54.40
2018-12-26T06:26:42.788Z,60.25
2018-12-26T06:27:51.549Z,54.70
2018-12-26T06:28:54.846Z,59.15
2018-12-26T06:30:00.113Z,57.53
2018-12-26T06:31:05.398Z,55.05
2018-12-26T06:32:10.680Z,57.25
2018-12-26T06:33:15.914Z,59.50
2018-12-26T06:34:21.205Z,58.58
2018-12-26T06:35:26.453Z,59.38
2018-12-26T06:36:31.945Z,57.53
2018-12-26T06:37:37.133Z,59.93
2018-12-26T06:38:42.282Z,60.78
2018-12-26T06:39:47.551Z,56.85
2018-12-26T06:40:52.823Z,58.48
2018-12-26T06:41:58.000Z,55.35
2018-12-26T06:43:03.280Z,56.68
2018-12-26T06:44:08.587Z,60.23
2018-12-26T06:45:13.885Z,64.40
2018-12-26T06:46:19.215Z,56.88
2018-12-26T06:47:24.454Z,61.70
2018-12-26T06:48:29.734Z,56.20
2018-12-26T06:49:34.936Z,56.33
2018-12-26T06:50:40.213Z,60.30
2018-12-26T06:51:45.423Z,56.95
2018-12-26T06:52:50.673Z,54.77
2018-12-26T06:53:55.896Z,56.93
2018-12-26T06:55:01.089Z,59.15
2018-12-26T06:56:06.345Z,61.73
2018-12-26T06:57:11.652Z,56.90
2018-12-26T06:58:17.054Z,55.15
2018-12-26T06:59:22.414Z,56.60
2018-12-26T07:00:27.616Z,57.43
2018-12-26T07:01:32.922Z,55.15
2018-12-26T07:02:38.096Z,62.38
2018-12-26T07:03:43.348Z,58.28
2018-12-26T07:04:48.544Z,61.68
2018-12-26T07:05:53.852Z,59.67
2018-12-26T07:06:59.123Z,52.65
2018-12-26T07:08:04.377Z,60.80
2018-12-26T07:09:09.552Z,60.92
2018-12-26T07:10:15.502Z,61.95
2018-12-26T07:11:20.735Z,59.00
2018-12-26T07:12:25.925Z,56.53
2018-12-26T07:13:31.113Z,58.10
2018-12-26T07:14:36.352Z,59.58
2018-12-26T07:15:41.560Z,55.23
2018-12-26T07:16:46.824Z,62.17
2018-12-26T07:17:52.195Z,60.90
2018-12-26T07:18:57.367Z,55.98
2018-12-26T07:20:02.592Z,59.55
2018-12-26T07:21:07.847Z,60.63
2018-12-26T07:22:13.214Z,61.48
2018-12-26T07:23:18.411Z,55.05
2018-12-26T07:24:23.678Z,57.50
2018-12-26T07:25:29.013Z,58.15
2018-12-26T07:26:34.350Z,59.98
2018-12-26T07:27:39.606Z,55.83
2018-12-26T07:28:44.862Z,59.77
2018-12-26T07:29:50.134Z,61.10
2018-12-26T07:30:55.396Z,55.38
2018-12-26T07:32:00.673Z,64.30
2018-12-26T07:33:06.049Z,61.20
2018-12-26T07:34:11.335Z,55.85
2018-12-26T07:35:16.664Z,59.83
2018-12-26T07:36:21.954Z,62.70
2018-12-26T07:37:27.167Z,60.38
2018-12-26T07:38:32.439Z,60.67
2018-12-26T07:39:37.592Z,60.95
2018-12-26T07:40:42.812Z,60.35
2018-12-26T07:41:48.083Z,59.73
2018-12-26T07:42:53.321Z,58.90
2018-12-26T07:43:58.559Z,59.77
2018-12-26T07:45:03.731Z,60.92
2018-12-26T07:46:08.994Z,62.93
2018-12-26T07:47:14.106Z,64.12
2018-12-26T07:48:19.477Z,58.75
2018-12-26T07:49:24.734Z,57.25
2018-12-26T07:50:30.067Z,59.83
2018-12-26T07:51:35.238Z,60.30
2018-12-26T07:52:40.624Z,61.95
2018-12-26T07:53:45.900Z,62.90
2018-12-26T07:54:51.246Z,57.30
2018-12-26T07:55:56.420Z,66.82
2018-12-26T07:57:01.677Z,58.70
2018-12-26T07:58:06.969Z,61.37
2018-12-26T07:59:12.341Z,59.08
2018-12-26T08:00:17.600Z,58.78
2018-12-26T08:01:22.789Z,67.27
2018-12-26T08:02:27.970Z,61.65
2018-12-26T08:03:33.220Z,57.25
2018-12-26T08:04:38.444Z,61.73
2018-12-26T08:05:43.718Z,65.52
2018-12-26T08:06:48.832Z,63.78
2018-12-26T08:07:54.057Z,64.20
2018-12-26T08:08:59.331Z,62.43
2018-12-26T08:10:04.634Z,60.05
2018-12-26T08:11:09.855Z,60.90
2018-12-26T08:12:15.102Z,60.85
2018-12-26T08:13:20.524Z,66.90
2018-12-26T08:14:25.835Z,62.67
2018-12-26T08:15:30.984Z,69.35
2018-12-26T08:16:36.109Z,66.75
2018-12-26T08:17:41.395Z,71.00
2018-12-26T08:18:46.665Z,64.87
2018-12-26T08:19:51.932Z,57.90
2018-12-26T08:20:57.167Z,62.48
2018-12-26T08:22:02.462Z,62.65
2018-12-26T08:23:07.641Z,65.90
2018-12-26T08:24:12.980Z,59.30
2018-12-26T08:25:18.286Z,63.33
2018-12-26T08:26:23.590Z,65.32
2018-12-26T08:27:28.840Z,63.87
2018-12-26T08:28:34.053Z,61.65
2018-12-26T08:29:39.302Z,66.67
2018-12-26T08:30:44.538Z,62.60
2018-12-26T08:31:49.756Z,69.35
2018-12-26T08:32:54.989Z,63.33
2018-12-26T08:34:01.630Z,58.02
2018-12-26T08:35:07.878Z,59.75
2018-12-26T08:36:13.132Z,66.55
2018-12-26T08:37:18.380Z,64.85
2018-12-26T08:38:23.786Z,64.65
2018-12-26T08:39:28.934Z,65.72
2018-12-26T08:40:34.148Z,65.72
2018-12-26T08:41:39.602Z,62.03
2018-12-26T08:42:44.891Z,63.73
2018-12-26T08:43:50.089Z,67.55
2018-12-26T08:44:55.387Z,64.20
2018-12-26T08:46:00.680Z,65.35
2018-12-26T08:47:06.030Z,67.95
2018-12-26T08:48:11.316Z,63.13
2018-12-26T08:49:16.612Z,64.72
2018-12-26T08:50:21.943Z,63.58
2018-12-26T08:51:27.229Z,70.67
2018-12-26T08:52:32.502Z,62.93
2018-12-26T08:53:37.776Z,66.90
2018-12-26T08:54:43.063Z,69.53
2018-12-26T08:55:48.375Z,70.78
2018-12-26T08:56:53.667Z,64.95
2018-12-26T08:57:58.924Z,72.05
2018-12-26T08:59:04.188Z,69.35
2018-12-26T09:00:09.487Z,68.52
2018-12-26T09:01:14.856Z,67.17
2018-12-26T09:02:20.091Z,68.47
2018-12-26T09:03:25.498Z,68.52
2018-12-26T09:04:30.728Z,67.72
2018-12-26T09:05:36.006Z,69.62
2018-12-26T09:06:41.183Z,67.50
2018-12-26T09:07:46.532Z,69.60
2018-12-26T09:08:51.878Z,63.98
2018-12-26T09:09:57.148Z,66.50
2018-12-26T09:11:02.424Z,150.78
2018-12-26T09:12:07.749Z,86.05
2018-12-26T09:13:13.159Z,76.55
2018-12-26T09:14:18.496Z,75.67
2018-12-26T09:15:24.970Z,71.80
2018-12-26T09:16:30.191Z,68.33
2018-12-26T09:17:35.433Z,65.90
2018-12-26T09:18:40.684Z,69.45
2018-12-26T09:19:45.954Z,75.25
2018-12-26T09:20:51.218Z,67.75
2018-12-26T09:21:56.525Z,69.95
2018-12-26T09:23:01.773Z,71.80
2018-12-26T09:24:07.100Z,70.60
2018-12-26T09:25:12.382Z,68.35
2018-12-26T09:26:17.611Z,66.35
2018-12-26T09:27:22.985Z,65.45
2018-12-26T09:28:28.268Z,70.97
2018-12-26T09:29:33.520Z,67.78
2018-12-26T09:30:38.895Z,73.85
2018-12-26T09:31:44.263Z,67.95
2018-12-26T09:32:49.691Z,61.33
2018-12-26T09:33:54.998Z,74.97
2018-12-26T09:35:00.331Z,68.75
2018-12-26T09:36:05.656Z,65.28
2018-12-26T09:37:10.793Z,68.60
2018-12-26T09:38:16.121Z,67.58
2018-12-26T09:39:21.349Z,72.78
2018-12-26T09:40:26.715Z,70.10
2018-12-26T09:41:31.967Z,65.37
2018-12-26T09:42:37.466Z,79.00
2018-12-26T09:43:42.777Z,73.35
2018-12-26T09:44:54.469Z,73.05
2018-12-26T09:45:54.895Z,70.30
2018-12-26T09:47:00.178Z,73.57
2018-12-26T09:48:05.464Z,68.10
2018-12-26T09:49:10.821Z,66.90
2018-12-26T09:50:17.800Z,82.20
2018-12-26T09:51:23.331Z,72.17
2018-12-26T09:52:28.747Z,73.95
2018-12-26T09:53:34.034Z,76.75
2018-12-26T09:54:39.274Z,73.33
2018-12-26T09:55:44.500Z,90.00
2018-12-26T09:56:49.807Z,80.70
2018-12-26T09:57:55.105Z,80.45
2018-12-26T09:59:01.030Z,74.55
2018-12-26T10:00:08.459Z,82.82
2018-12-26T10:01:13.754Z,85.75
2018-12-26T10:02:20.724Z,72.60
2018-12-26T10:03:29.123Z,78.28
2018-12-26T10:04:34.348Z,80.03
2018-12-26T10:05:39.545Z,75.90
2018-12-26T10:06:44.877Z,80.07
2018-12-26T10:07:51.670Z,81.02
2018-12-26T10:09:00.248Z,71.00
2018-12-26T10:10:05.986Z,70.62
2018-12-26T10:11:11.795Z,75.10
2018-12-26T10:12:17.159Z,72.08
2018-12-26T10:13:22.673Z,74.50
2018-12-26T10:14:27.899Z,70.85
2018-12-26T10:15:33.270Z,77.53
2018-12-26T10:16:38.452Z,78.35
2018-12-26T10:17:44.031Z,76.28
2018-12-26T10:18:49.311Z,74.85
2018-12-26T10:19:54.507Z,75.65
2018-12-26T10:21:02.771Z,75.85
2018-12-26T10:22:11.252Z,75.05
2018-12-26T10:23:19.756Z,83.52
2018-12-26T10:24:25.182Z,74.27
2018-12-26T10:25:31.363Z,80.92
2018-12-26T10:26:36.857Z,81.28
2018-12-26T10:27:42.129Z,68.55
2018-12-26T10:28:47.357Z,73.87
2018-12-26T10:29:52.574Z,82.65
2018-12-26T10:30:57.803Z,75.20
2018-12-26T10:32:03.040Z,77.85
2018-12-26T10:33:08.389Z,77.55
2018-12-26T10:34:13.664Z,75.35
2018-12-26T10:35:18.868Z,80.47
2018-12-26T10:36:24.021Z,80.03
2018-12-26T10:37:29.354Z,78.17
2018-12-26T10:38:34.681Z,80.17
2018-12-26T10:39:39.953Z,73.47
2018-12-26T10:40:45.201Z,82.47
2018-12-26T10:41:50.509Z,77.20
2018-12-26T10:42:55.779Z,73.85
2018-12-26T10:44:01.071Z,79.15
2018-12-26T10:45:07.105Z,81.12
2018-12-26T10:46:12.368Z,74.70
2018-12-26T10:47:17.530Z,76.90
2018-12-26T10:48:22.815Z,77.97
2018-12-26T10:49:27.975Z,87.65
2018-12-26T10:50:33.215Z,84.28
2018-12-26T10:51:38.381Z,90.57
2018-12-26T10:52:43.658Z,87.92
2018-12-26T10:53:48.913Z,80.45
2018-12-26T10:54:54.151Z,84.90
2018-12-26T10:55:59.397Z,81.22
2018-12-26T10:57:04.756Z,82.60
2018-12-26T10:58:10.148Z,79.82
2018-12-26T10:59:15.294Z,81.65
2018-12-26T11:00:20.669Z,80.00
2018-12-26T11:01:26.049Z,76.12
2018-12-26T11:02:31.344Z,76.30
2018-12-26T11:03:36.624Z,77.47
2018-12-26T11:04:41.846Z,72.47
2018-12-26T11:05:47.048Z,74.60
2018-12-26T11:06:52.368Z,72.67
2018-12-26T11:07:57.991Z,77.97
2018-12-26T11:09:04.605Z,77.20
2018-12-26T11:10:12.739Z,69.97
2018-12-26T11:11:20.068Z,74.10
2018-12-26T11:12:25.594Z,70.25
2018-12-26T11:13:31.605Z,75.78
2018-12-26T11:14:37.053Z,69.82
2018-12-26T11:15:42.530Z,68.35
2018-12-26T11:16:48.416Z,66.65
2018-12-26T11:17:54.788Z,67.08
2018-12-26T11:19:00.569Z,68.17
2018-12-26T11:20:08.736Z,67.03
2018-12-26T11:21:14.579Z,69.10
2018-12-26T11:22:19.857Z,65.35
2018-12-26T11:23:25.262Z,65.52
2018-12-26T11:24:30.742Z,77.10
2018-12-26T11:25:36.181Z,61.40
2018-12-26T11:26:41.846Z,58.98
2018-12-26T11:27:47.200Z,52.83
2018-12-26T11:28:52.550Z,58.92
2018-12-26T11:29:57.988Z,58.00
2018-12-26T11:31:03.431Z,56.88
2018-12-26T11:32:11.421Z,59.85
2018-12-26T11:33:17.016Z,62.40
2018-12-26T11:34:22.642Z,53.98
2018-12-26T11:35:28.345Z,57.73
2018-12-26T11:36:33.839Z,60.08
2018-12-26T11:37:39.468Z,60.12
2018-12-26T11:38:45.125Z,55.17
2018-12-26T11:39:50.670Z,62.48
2018-12-26T11:40:57.305Z,59.15
2018-12-26T11:42:02.879Z,56.80
2018-12-26T11:43:08.474Z,60.85
2018-12-26T11:44:14.561Z,60.40
2018-12-26T11:45:20.348Z,58.80
2018-12-26T11:46:25.917Z,58.50
2018-12-26T11:47:31.464Z,56.63
2018-12-26T11:48:38.058Z,58.83
2018-12-26T11:49:43.718Z,60.45
2018-12-26T11:50:49.265Z,60.35
2018-12-26T11:51:54.654Z,56.20
2018-12-26T11:52:59.912Z,63.15
2018-12-26T11:54:05.920Z,66.30
2018-12-26T11:55:11.155Z,61.08
2018-12-26T11:56:16.421Z,64.42
2018-12-26T11:57:21.772Z,66.22
2018-12-26T11:58:27.045Z,61.50
2018-12-26T11:59:32.240Z,66.07
2018-12-26T12:00:37.500Z,72.03
2018-12-26T12:01:42.774Z,63.87
2018-12-26T12:02:48.081Z,68.63
2018-12-26T12:03:53.273Z,62.73
2018-12-26T12:04:58.497Z,71.20
2018-12-26T12:06:03.770Z,64.47
2018-12-26T12:07:09.117Z,63.63
2018-12-26T12:08:14.317Z,71.33
2018-12-26T12:09:19.675Z,66.72
2018-12-26T12:10:25.038Z,71.22
2018-12-26T12:11:30.341Z,67.17
2018-12-26T12:12:35.596Z,66.30
2018-12-26T12:13:40.856Z,64.82
2018-12-26T12:14:46.018Z,65.97
2018-12-26T12:15:51.259Z,67.42
2018-12-26T12:16:57.504Z,65.45
2018-12-26T12:18:02.817Z,63.98
2018-12-26T12:19:08.179Z,63.30
2018-12-26T12:20:13.437Z,68.83
2018-12-26T12:21:18.759Z,65.12
2018-12-26T12:22:23.977Z,62.48
2018-12-26T12:23:29.256Z,62.35
2018-12-26T12:24:34.529Z,71.50
2018-12-26T12:25:39.934Z,62.43
2018-12-26T12:26:45.084Z,66.47
2018-12-26T12:27:50.422Z,78.95
2018-12-26T12:28:55.582Z,68.15
2018-12-26T12:30:00.857Z,68.60
2018-12-26T12:31:06.100Z,64.15
2018-12-26T12:32:11.338Z,71.10
2018-12-26T12:33:16.488Z,68.10
2018-12-26T12:34:21.659Z,65.37
2018-12-26T12:35:27.100Z,65.28
2018-12-26T12:36:32.375Z,71.00
2018-12-26T12:37:37.848Z,69.67
2018-12-26T12:38:43.221Z,70.12
2018-12-26T12:39:48.382Z,73.83
2018-12-26T12:40:53.604Z,75.03
2018-12-26T12:42:00.814Z,73.00
2018-12-26T12:43:06.127Z,73.42
2018-12-26T12:44:11.470Z,73.97
2018-12-26T12:45:16.833Z,70.83
2018-12-26T12:46:22.160Z,75.30
2018-12-26T12:47:27.326Z,68.65
2018-12-26T12:48:32.680Z,77.92
2018-12-26T12:49:37.877Z,80.65
2018-12-26T12:50:43.938Z,73.50
2018-12-26T12:51:49.100Z,74.53
2018-12-26T12:52:54.410Z,74.15
2018-12-26T12:53:59.680Z,71.35
2018-12-26T12:55:05.178Z,73.00
2018-12-26T12:56:12.204Z,76.70
2018-12-26T12:57:17.474Z,72.00
2018-12-26T12:58:22.643Z,75.17
2018-12-26T12:59:27.849Z,75.20
2018-12-26T13:00:33.090Z,77.03
2018-12-26T13:01:38.334Z,67.13
2018-12-26T13:02:43.652Z,71.90
2018-12-26T13:03:49.132Z,68.90
2018-12-26T13:04:54.466Z,77.08
2018-12-26T13:06:01.816Z,74.10
2018-12-26T13:07:07.281Z,73.60
2018-12-26T13:08:13.307Z,82.80
2018-12-26T13:09:18.754Z,79.30
2018-12-26T13:10:30.285Z,190.00
2018-12-26T13:11:44.664Z,68.37
2018-12-26T13:12:49.845Z,75.67
2018-12-26T13:13:55.368Z,70.97
2018-12-26T13:15:00.839Z,72.20
2018-12-26T13:16:07.753Z,71.02
2018-12-26T13:17:16.186Z,74.07
2018-12-26T13:18:27.592Z,79.42
2018-12-26T13:19:33.087Z,75.60
2018-12-26T13:20:40.861Z,76.17
2018-12-26T13:21:49.330Z,76.80
2018-12-26T13:22:54.730Z,73.10
2018-12-26T13:24:08.213Z,79.58
2018-12-26T13:25:15.983Z,76.63
2018-12-26T13:26:21.509Z,71.45
2018-12-26T13:27:29.660Z,77.25
2018-12-26T13:28:35.145Z,78.47
2018-12-26T13:29:42.497Z,77.35
2018-12-26T13:30:47.421Z,78.07
2018-12-26T13:31:53.748Z,72.47
2018-12-26T13:32:59.085Z,77.97
2018-12-26T13:34:06.543Z,75.30
2018-12-26T13:35:14.935Z,73.12
2018-12-26T13:36:22.692Z,74.80
2018-12-26T13:37:29.732Z,78.17
2018-12-26T13:38:36.414Z,77.97
2018-12-26T13:39:44.614Z,82.73
2018-12-26T13:40:52.921Z,78.10
2018-12-26T13:42:01.164Z,76.02
2018-12-26T13:43:07.671Z,79.50
2018-12-26T13:44:15.697Z,71.82
2018-12-26T13:45:21.030Z,75.20
2018-12-26T13:46:33.524Z,71.87
2018-12-26T13:47:33.267Z,70.37
2018-12-26T13:48:38.598Z,72.97
2018-12-26T13:49:43.963Z,72.77
2018-12-26T13:50:49.164Z,79.13
2018-12-26T13:51:54.385Z,79.12
2018-12-26T13:52:59.851Z,79.30
2018-12-26T13:54:05.279Z,83.43
2018-12-26T13:55:10.736Z,80.45
2018-12-26T13:56:30.747Z,80.77
2018-12-26T13:57:39.721Z,81.80
2018-12-26T13:58:46.666Z,81.65
2018-12-26T14:00:02.555Z,78.77
2018-12-26T14:01:12.378Z,84.30
2018-12-26T14:02:17.742Z,86.35
2018-12-26T14:03:23.568Z,92.62
2018-12-26T14:04:42.218Z,86.20
2018-12-26T14:05:48.023Z,80.97
2018-12-26T14:06:53.309Z,88.27
2018-12-26T14:08:16.482Z,87.30
2018-12-26T14:09:25.054Z,97.50
2018-12-26T14:10:30.406Z,89.17
2018-12-26T14:11:35.762Z,86.63
2018-12-26T14:12:41.075Z,92.10
2018-12-26T14:13:46.931Z,87.25
2018-12-26T14:14:52.280Z,89.10
2018-12-26T14:15:57.553Z,89.77
2018-12-26T14:17:03.048Z,92.47
2018-12-26T14:18:08.788Z,88.37
2018-12-26T14:19:14.148Z,98.67
2018-12-26T14:20:19.427Z,91.17
2018-12-26T14:21:24.959Z,91.67
2018-12-26T14:22:30.572Z,92.08
2018-12-26T14:23:35.994Z,89.72
2018-12-26T14:24:41.692Z,90.07
2018-12-26T14:25:47.334Z,94.85
2018-12-26T14:26:52.773Z,93.33
2018-12-26T14:27:58.702Z,97.53
2018-12-26T14:29:04.064Z,96.15
2018-12-26T14:30:11.387Z,101.35
2018-12-26T14:31:17.170Z,104.07
2018-12-26T14:32:22.512Z,94.90
2018-12-26T14:33:28.039Z,99.97
2018-12-26T14:34:36.476Z,101.80
2018-12-26T14:35:52.134Z,90.40
2018-12-26T14:36:57.537Z,99.37
2018-12-26T14:38:03.105Z,91.78
2018-12-26T14:39:08.643Z,95.63
2018-12-26T14:40:14.226Z,99.00
2018-12-26T14:41:19.590Z,85.70
2018-12-26T14:42:24.942Z,92.00
2018-12-26T14:43:30.370Z,96.60
2018-12-26T14:44:35.767Z,99.13
2018-12-26T14:45:41.164Z,98.00
2018-12-26T14:46:46.521Z,88.67
2018-12-26T14:47:52.436Z,88.30
2018-12-26T14:48:58.411Z,97.77
2018-12-26T14:50:04.488Z,89.28
2018-12-26T14:51:10.331Z,88.17
2018-12-26T14:52:16.064Z,88.60
2018-12-26T14:53:26.195Z,95.80